Time;durP1;ratioP1;P1;durP2;ratioP2;P2;SDS_P1;SDS_P2;PMS_P1;PMS_P2;Temp;Humidity;BMP_temperature;BMP_pressure;BME280_temperature;BME280_humidity;BME280_pressure;Samples;Min_cycle;Max_cycle;Signal;HPM_P1;HPM_P2
2021/05/21 00:00:15;;;;;;;8.73;6.28;;;13.00;82.50;;;;;;5047729;28;20067;-76
2021/05/21 00:02:41;;;;;;;8.65;5.40;;;13.00;82.70;;;;;;5046590;28;20033;-77
2021/05/21 00:05:07;;;;;;;9.73;5.60;;;13.00;82.80;;;;;;5069887;28;20039;-76
2021/05/21 00:07:32;;;;;;;7.43;5.80;;;13.00;83.20;;;;;;5071195;28;20091;-77
2021/05/21 00:09:58;;;;;;;8.20;5.25;;;13.00;83.30;;;;;;5054654;28;20112;-76
2021/05/21 00:12:24;;;;;;;8.60;5.85;;;12.90;83.40;;;;;;5058435;28;20060;-77
2021/05/21 00:14:49;;;;;;;9.18;6.20;;;12.90;83.60;;;;;;5053220;28;20108;-76
2021/05/21 00:17:15;;;;;;;9.63;5.88;;;12.80;83.50;;;;;;5066950;28;20111;-77
2021/05/21 00:19:41;;;;;;;8.40;5.55;;;12.80;83.90;;;;;;5046264;28;20090;-76
2021/05/21 00:22:06;;;;;;;9.30;6.47;;;12.70;84.10;;;;;;5068996;28;20131;-77
2021/05/21 00:24:32;;;;;;;10.25;5.97;;;12.70;84.20;;;;;;5072128;28;20021;-77
2021/05/21 00:26:58;;;;;;;9.80;6.53;;;12.60;84.80;;;;;;5066430;28;20037;-77
2021/05/21 00:29:23;;;;;;;11.68;6.22;;;12.60;84.60;;;;;;5066876;28;20029;-77
2021/05/21 00:31:49;;;;;;;9.18;5.78;;;12.60;85.00;;;;;;5067222;28;20078;-76
2021/05/21 00:34:15;;;;;;;8.05;5.50;;;12.50;85.40;;;;;;5064402;28;20032;-76
2021/05/21 00:36:41;;;;;;;8.18;6.43;;;12.50;85.50;;;;;;5049746;28;20051;-76
2021/05/21 00:39:06;;;;;;;11.25;5.72;;;12.40;85.80;;;;;;5068393;28;20444;-77
2021/05/21 00:41:32;;;;;;;9.55;5.65;;;12.40;86.00;;;;;;5066339;28;20089;-77
2021/05/21 00:43:58;;;;;;;8.82;5.78;;;12.40;86.20;;;;;;5053120;28;20120;-76
2021/05/21 00:46:24;;;;;;;10.95;6.35;;;12.40;86.40;;;;;;5051632;28;20059;-76
2021/05/21 00:48:50;;;;;;;9.50;6.63;;;12.40;86.60;;;;;;5069611;28;20044;-76
2021/05/21 00:51:16;;;;;;;12.15;6.90;;;12.30;86.60;;;;;;5061763;28;20032;-77
2021/05/21 00:53:42;;;;;;;8.65;5.78;;;12.30;87.10;;;;;;5051405;28;20462;-77
2021/05/21 00:56:08;;;;;;;8.38;5.95;;;12.30;87.00;;;;;;5047123;28;20033;-79
2021/05/21 00:58:36;;;;;;;11.60;6.65;;;12.30;87.40;;;;;;5053187;28;20410;-77
2021/05/21 01:01:02;;;;;;;12.85;6.97;;;12.20;87.60;;;;;;5054420;28;20474;-77
2021/05/21 01:03:28;;;;;;;9.98;6.75;;;12.20;87.40;;;;;;5052142;28;20280;-76
2021/05/21 01:05:53;;;;;;;10.70;7.05;;;12.20;87.50;;;;;;5050215;28;20040;-76
2021/05/21 01:08:20;;;;;;;9.30;6.18;;;12.20;87.50;;;;;;5032612;28;20032;-76
2021/05/21 01:10:46;;;;;;;10.52;6.60;;;12.20;87.50;;;;;;5066141;28;20023;-76
2021/05/21 01:13:12;;;;;;;10.40;6.93;;;12.20;87.70;;;;;;5069286;28;20032;-77
2021/05/21 01:15:40;;;;;;;11.35;6.78;;;12.20;87.90;;;;;;5071570;28;20021;-76
2021/05/21 01:18:07;;;;;;;13.65;7.45;;;12.20;88.20;;;;;;5069012;28;20028;-76
2021/05/21 01:20:34;;;;;;;11.93;7.75;;;12.10;88.20;;;;;;5068869;28;20024;-76
2021/05/21 01:23:01;;;;;;;10.77;7.18;;;12.00;88.50;;;;;;5050134;28;20053;-76
2021/05/21 01:25:27;;;;;;;9.65;6.28;;;12.00;88.30;;;;;;5058523;28;20036;-77
2021/05/21 01:27:59;;;;;;;9.60;6.03;;;12.00;88.70;;;;;;5070118;28;20044;-77
2021/05/21 01:30:26;;;;;;;9.05;6.75;;;12.00;88.80;;;;;;5068741;28;20095;-76
2021/05/21 01:32:53;;;;;;;10.02;6.32;;;11.90;88.80;;;;;;5070674;28;20032;-76
2021/05/21 01:35:19;;;;;;;10.40;6.68;;;11.90;88.80;;;;;;5073871;28;20012;-77
2021/05/21 01:37:48;;;;;;;10.35;6.28;;;11.90;88.90;;;;;;5072160;28;20032;-78
2021/05/21 01:40:15;;;;;;;10.98;6.93;;;11.90;89.00;;;;;;5071602;28;20024;-76
2021/05/21 01:42:42;;;;;;;10.73;6.53;;;11.90;89.20;;;;;;5072913;28;20090;-75
2021/05/21 01:45:10;;;;;;;11.75;7.20;;;11.80;89.30;;;;;;5057131;28;20036;-76
2021/05/21 01:47:37;;;;;;;11.57;6.60;;;11.80;89.40;;;;;;5073275;28;20474;-76
2021/05/21 01:50:05;;;;;;;9.98;6.88;;;11.80;89.80;;;;;;5036198;28;20063;-78
2021/05/21 01:52:30;;;;;;;9.82;6.90;;;11.70;89.80;;;;;;5071187;28;20036;-78
2021/05/21 01:54:56;;;;;;;9.02;6.80;;;11.70;89.80;;;;;;5052380;28;20119;-77
2021/05/21 01:57:22;;;;;;;11.68;7.22;;;11.70;90.00;;;;;;5072676;28;20051;-77
2021/05/21 01:59:48;;;;;;;8.77;6.88;;;11.70;90.10;;;;;;5056607;28;20075;-78
2021/05/21 02:02:13;;;;;;;9.55;7.35;;;11.60;90.20;;;;;;5058287;28;20055;-77
2021/05/21 02:04:42;;;;;;;9.77;6.78;;;11.60;90.20;;;;;;5071270;28;20033;-77
2021/05/21 02:07:11;;;;;;;12.25;7.55;;;11.60;90.20;;;;;;5069167;28;20028;-77
2021/05/21 02:10:03;;;;;;;12.00;7.50;;;11.50;90.10;;;;;;5067297;28;20063;-77
2021/05/21 02:12:30;;;;;;;10.82;7.75;;;11.60;90.20;;;;;;5071972;28;20032;-77
2021/05/21 02:15:01;;;;;;;14.30;7.75;;;11.50;90.40;;;;;;5074167;28;20466;-77
2021/05/21 02:17:27;;;;;;;9.80;7.22;;;11.50;90.30;;;;;;5069170;28;20032;-77
2021/05/21 02:19:58;;;;;;;12.70;7.57;;;11.50;90.50;;;;;;5051893;28;20029;-77
2021/05/21 02:22:25;;;;;;;12.68;8.32;;;11.50;90.40;;;;;;5060991;28;20032;-76
2021/05/21 02:24:54;;;;;;;11.23;7.60;;;11.50;90.50;;;;;;5073916;28;20032;-76
2021/05/21 02:27:19;;;;;;;12.65;7.32;;;11.40;90.60;;;;;;5069264;28;20037;-77
2021/05/21 02:29:45;;;;;;;13.38;7.40;;;11.40;90.60;;;;;;5073229;28;20028;-77
2021/05/21 02:32:13;;;;;;;12.10;8.27;;;11.40;90.60;;;;;;5072307;28;20112;-77
2021/05/21 02:34:39;;;;;;;11.55;6.95;;;11.40;90.70;;;;;;5054440;28;20107;-77
2021/05/21 02:37:06;;;;;;;11.93;7.35;;;11.40;90.70;;;;;;5072183;28;20112;-78
2021/05/21 02:39:31;;;;;;;13.13;7.45;;;11.40;90.70;;;;;;5055784;28;20020;-77
2021/05/21 02:41:57;;;;;;;9.52;6.18;;;11.40;90.90;;;;;;5064995;28;20036;-78
2021/05/21 02:44:23;;;;;;;10.40;7.05;;;11.40;90.90;;;;;;5071484;28;20763;-77
2021/05/21 02:46:49;;;;;;;10.63;7.13;;;11.40;90.80;;;;;;5059697;28;20029;-77
2021/05/21 02:49:24;;;;;;;10.95;7.78;;;11.40;90.90;;;;;;5073662;28;20032;-78
2021/05/21 02:51:51;;;;;;;10.98;7.05;;;11.30;90.80;;;;;;5073462;28;20032;-77
2021/05/21 02:54:18;;;;;;;10.95;6.75;;;11.40;90.90;;;;;;5055710;28;20037;-77
2021/05/21 02:56:44;;;;;;;9.82;6.68;;;11.30;90.90;;;;;;5066484;28;20029;-77
2021/05/21 02:59:10;;;;;;;10.80;6.65;;;11.30;91.00;;;;;;5050250;28;20027;-77
2021/05/21 03:01:35;;;;;;;10.68;7.28;;;11.30;91.00;;;;;;5070946;28;20028;-77
2021/05/21 03:04:01;;;;;;;9.63;6.60;;;11.30;91.20;;;;;;5070903;28;20036;-77
2021/05/21 03:06:27;;;;;;;11.52;7.20;;;11.30;91.10;;;;;;5055143;28;20032;-77
2021/05/21 03:08:56;;;;;;;10.90;7.07;;;11.30;91.10;;;;;;5048955;28;20060;-77
2021/05/21 03:11:22;;;;;;;10.90;7.63;;;11.20;91.20;;;;;;5056281;28;20044;-76
2021/05/21 03:13:47;;;;;;;10.07;6.97;;;11.20;91.20;;;;;;5073265;28;20021;-77
2021/05/21 03:16:13;;;;;;;13.38;7.18;;;11.20;91.30;;;;;;5062297;28;20035;-77
2021/05/21 03:18:39;;;;;;;11.15;8.13;;;11.20;91.30;;;;;;5066584;28;20068;-77
2021/05/21 03:21:05;;;;;;;11.02;7.00;;;11.20;91.30;;;;;;5072942;28;20024;-78
2021/05/21 03:23:31;;;;;;;10.77;6.95;;;11.10;91.50;;;;;;5046530;28;20067;-77
2021/05/21 03:25:57;;;;;;;11.18;6.90;;;11.10;91.40;;;;;;5054532;28;20054;-77
2021/05/21 03:28:23;;;;;;;11.98;7.53;;;11.10;91.40;;;;;;5064789;28;20095;-77
2021/05/21 03:30:49;;;;;;;9.57;6.85;;;11.20;91.50;;;;;;5073208;28;20649;-77
2021/05/21 03:33:15;;;;;;;12.82;7.50;;;11.20;91.50;;;;;;5073143;28;20039;-77
2021/05/21 03:35:41;;;;;;;12.95;7.57;;;11.20;91.40;;;;;;5051662;28;20116;-77
2021/05/21 03:38:07;;;;;;;12.30;7.68;;;11.20;91.40;;;;;;5046578;28;20085;-76
2021/05/21 03:40:34;;;;;;;12.40;7.55;;;11.20;91.40;;;;;;5055056;28;20035;-77
2021/05/21 03:43:01;;;;;;;10.52;6.80;;;11.20;91.40;;;;;;5056004;28;20054;-77
2021/05/21 03:45:27;;;;;;;10.35;7.30;;;11.20;91.40;;;;;;5077510;28;20086;-76
2021/05/21 03:47:52;;;;;;;9.32;6.32;;;11.30;91.30;;;;;;5072761;28;20436;-77
2021/05/21 03:50:20;;;;;;;11.73;7.15;;;11.20;91.30;;;;;;5066802;28;20082;-77
2021/05/21 03:52:47;;;;;;;9.45;6.22;;;11.20;91.30;;;;;;5073478;28;20112;-77
2021/05/21 03:55:15;;;;;;;8.00;5.93;;;11.30;91.30;;;;;;5071920;28;20025;-77
2021/05/21 03:57:41;;;;;;;11.13;6.68;;;11.30;91.30;;;;;;5054543;28;20021;-77
2021/05/21 04:00:10;;;;;;;11.10;6.35;;;11.20;91.20;;;;;;5065880;28;20024;-77
2021/05/21 04:02:36;;;;;;;10.85;6.35;;;11.20;91.30;;;;;;5071855;28;20035;-77
2021/05/21 04:05:02;;;;;;;9.07;6.15;;;11.30;91.30;;;;;;5071383;28;20039;-77
2021/05/21 04:07:28;;;;;;;10.00;6.75;;;11.20;91.30;;;;;;5054045;28;20024;-78
2021/05/21 04:09:54;;;;;;;7.55;5.80;;;11.20;91.20;;;;;;5054426;28;20425;-77
2021/05/21 04:12:20;;;;;;;11.13;7.18;;;11.20;91.10;;;;;;5072114;28;20044;-77
2021/05/21 04:14:45;;;;;;;8.98;6.38;;;11.20;91.20;;;;;;5054207;28;20031;-76
2021/05/21 04:17:11;;;;;;;9.13;6.68;;;11.20;91.20;;;;;;5071421;28;20082;-77
2021/05/21 04:19:36;;;;;;;12.27;6.13;;;11.30;91.10;;;;;;5054472;28;20107;-77
2021/05/21 04:22:02;;;;;;;11.77;6.10;;;11.30;91.20;;;;;;5064641;28;20043;-77
2021/05/21 04:24:28;;;;;;;9.05;6.03;;;11.30;90.90;;;;;;5072125;28;20056;-77
2021/05/21 04:26:54;;;;;;;8.25;5.78;;;11.20;90.90;;;;;;5050522;28;20036;-77
2021/05/21 04:29:19;;;;;;;9.65;5.88;;;11.20;91.00;;;;;;5060049;28;20115;-77
2021/05/21 04:31:45;;;;;;;9.32;6.20;;;11.30;91.00;;;;;;5071903;28;20033;-78
2021/05/21 04:34:11;;;;;;;11.98;6.28;;;11.30;91.00;;;;;;5043093;28;20122;-77
2021/05/21 04:36:36;;;;;;;10.73;6.22;;;11.30;90.90;;;;;;5071563;28;20099;-78
2021/05/21 04:39:04;;;;;;;8.55;6.03;;;11.30;90.80;;;;;;5072236;28;20078;-78
2021/05/21 04:41:29;;;;;;;9.20;5.47;;;11.30;90.90;;;;;;5071675;28;20482;-77
2021/05/21 04:43:55;;;;;;;9.05;6.32;;;11.30;90.90;;;;;;5072541;28;20066;-77
2021/05/21 04:46:21;;;;;;;9.43;6.50;;;11.30;90.90;;;;;;5073823;28;20086;-78
2021/05/21 04:48:47;;;;;;;9.80;6.15;;;11.30;90.90;;;;;;5070806;28;20123;-77
2021/05/21 04:51:12;;;;;;;9.32;6.25;;;11.30;90.90;;;;;;5071860;28;20032;-76
2021/05/21 04:53:40;;;;;;;9.00;6.53;;;11.40;90.90;;;;;;5077015;28;20111;-77
2021/05/21 04:56:08;;;;;;;9.35;6.00;;;11.40;90.90;;;;;;5071336;28;20044;-77
2021/05/21 04:58:33;;;;;;;10.50;5.53;;;11.40;90.90;;;;;;5036815;28;20025;-76
2021/05/21 05:00:59;;;;;;;9.40;5.47;;;11.40;90.90;;;;;;5070388;28;20112;-76
2021/05/21 05:03:25;;;;;;;11.10;5.93;;;11.40;91.00;;;;;;5070723;28;20509;-77
2021/05/21 05:05:51;;;;;;;9.00;5.85;;;11.40;90.90;;;;;;5052599;28;20033;-77
2021/05/21 05:08:16;;;;;;;8.55;5.55;;;11.50;90.80;;;;;;5075619;28;20763;-76
2021/05/21 05:10:46;;;;;;;10.70;6.13;;;11.50;90.80;;;;;;5072893;28;20029;-77
2021/05/21 05:13:13;;;;;;;8.65;5.57;;;11.50;90.80;;;;;;5056663;28;20033;-74
2021/05/21 05:15:43;;;;;;;8.27;5.43;;;11.60;90.40;;;;;;5052825;28;20017;-76
2021/05/21 05:18:09;;;;;;;7.50;4.63;;;11.60;90.60;;;;;;5061159;28;20028;-76
2021/05/21 05:20:35;;;;;;;8.35;4.90;;;11.60;90.50;;;;;;5075496;28;20572;-75
2021/05/21 05:23:02;;;;;;;13.15;4.70;;;11.60;90.30;;;;;;5075668;28;20032;-74
2021/05/21 05:25:28;;;;;;;6.18;4.00;;;11.70;89.50;;;;;;5075290;28;20035;-74
2021/05/21 05:27:55;;;;;;;7.00;4.25;;;11.70;89.60;;;;;;5058712;28;20040;-75
2021/05/21 05:30:22;;;;;;;9.73;4.57;;;11.80;89.90;;;;;;5060330;28;20030;-78
2021/05/21 05:32:48;;;;;;;8.20;4.93;;;11.90;88.60;;;;;;5058134;28;20020;-79
2021/05/21 05:35:14;;;;;;;7.15;4.47;;;12.00;88.70;;;;;;5057500;28;20048;-78
2021/05/21 05:37:40;;;;;;;8.13;4.00;;;12.00;88.60;;;;;;5075191;28;20059;-77
2021/05/21 05:40:07;;;;;;;5.85;3.65;;;12.00;88.20;;;;;;5074697;28;20024;-76
2021/05/21 05:42:33;;;;;;;5.72;3.85;;;12.00;88.50;;;;;;5076715;28;20032;-78
2021/05/21 05:44:58;;;;;;;7.22;3.97;;;12.00;88.40;;;;;;5056810;28;20385;-76
2021/05/21 05:47:24;;;;;;;6.72;3.83;;;12.00;88.30;;;;;;5074324;28;20081;-76
2021/05/21 05:49:50;;;;;;;7.68;3.65;;;12.00;88.40;;;;;;5074437;28;20040;-76
2021/05/21 05:52:16;;;;;;;5.25;3.80;;;12.00;88.50;;;;;;5069974;28;20432;-77
2021/05/21 05:54:43;;;;;;;10.93;4.55;;;12.00;88.50;;;;;;5070482;28;20029;-77
2021/05/21 05:57:09;;;;;;;9.88;4.65;;;12.10;88.50;;;;;;5055540;28;20024;-77
2021/05/21 05:59:35;;;;;;;7.65;4.60;;;12.10;88.80;;;;;;5063245;28;20483;-78
2021/05/21 06:02:01;;;;;;;6.00;3.95;;;12.10;88.60;;;;;;5061768;28;20033;-77
2021/05/21 06:04:26;;;;;;;6.47;3.90;;;12.00;88.70;;;;;;5065406;28;20147;-78
2021/05/21 06:06:52;;;;;;;6.93;3.85;;;12.10;88.90;;;;;;5068557;28;20112;-78
2021/05/21 06:09:18;;;;;;;7.88;4.07;;;12.10;88.90;;;;;;5065358;28;20052;-77
2021/05/21 06:11:44;;;;;;;6.80;3.83;;;12.10;88.80;;;;;;5072589;28;20040;-77
2021/05/21 06:14:10;;;;;;;5.97;3.30;;;12.10;88.80;;;;;;5074440;28;20033;-77
2021/05/21 06:16:36;;;;;;;7.78;3.90;;;12.10;88.40;;;;;;5072438;28;20033;-77
2021/05/21 06:19:01;;;;;;;8.07;3.90;;;12.20;88.90;;;;;;5067199;28;20051;-77
2021/05/21 06:21:27;;;;;;;4.85;3.08;;;12.20;88.90;;;;;;5054517;28;20406;-78
2021/05/21 06:23:53;;;;;;;5.80;3.90;;;12.20;88.90;;;;;;5046836;28;20020;-77
2021/05/21 06:28:52;;;;;;;4.80;2.88;;;12.30;88.80;;;;;;5045986;28;20498;-77
2021/05/21 06:31:18;;;;;;;4.88;2.90;;;12.30;89.00;;;;;;5046140;28;20538;-76
2021/05/21 06:33:44;;;;;;;5.88;3.03;;;12.40;89.10;;;;;;5065756;28;20096;-76
2021/05/21 06:36:10;;;;;;;6.30;3.35;;;12.50;89.20;;;;;;5069521;28;20109;-77
2021/05/21 06:38:37;;;;;;;5.57;3.00;;;12.50;89.10;;;;;;5069720;28;20047;-77
2021/05/21 06:41:03;;;;;;;9.63;3.35;;;12.50;89.10;;;;;;5036155;28;20386;-78
2021/05/21 06:43:29;;;;;;;7.00;3.85;;;12.60;88.50;;;;;;5043819;28;20035;-77
2021/05/21 06:45:55;;;;;;;7.78;3.05;;;12.60;88.70;;;;;;5062932;28;20075;-77
2021/05/21 06:48:21;;;;;;;5.32;2.10;;;12.70;87.50;;;;;;5062526;28;20024;-77
2021/05/21 06:50:48;;;;;;;6.75;2.40;;;12.90;85.90;;;;;;5049681;28;20065;-77
2021/05/21 06:53:14;;;;;;;4.75;1.80;;;12.90;85.80;;;;;;5064516;28;20059;-76
2021/05/21 06:55:39;;;;;;;4.85;2.30;;;13.00;86.00;;;;;;5054075;28;20447;-78
2021/05/21 06:58:06;;;;;;;3.88;1.52;;;13.10;85.00;;;;;;5064180;28;20092;-78
2021/05/21 07:00:34;;;;;;;3.28;1.90;;;13.10;85.40;;;;;;5050921;28;20155;-79
2021/05/21 07:03:01;;;;;;;3.05;1.60;;;13.20;85.30;;;;;;5067855;28;20017;-78
2021/05/21 07:05:26;;;;;;;7.25;1.77;;;13.20;84.90;;;;;;5045376;28;20040;-77
2021/05/21 07:07:52;;;;;;;4.05;1.60;;;13.30;84.80;;;;;;5046633;28;20029;-78
2021/05/21 07:10:18;;;;;;;3.88;1.48;;;13.30;85.20;;;;;;5065231;28;20111;-78
2021/05/21 07:12:45;;;;;;;4.68;1.42;;;13.30;84.60;;;;;;5050027;28;20149;-77
2021/05/21 07:15:11;;;;;;;3.55;1.30;;;13.40;84.70;;;;;;5071103;28;20021;-75
2021/05/21 07:17:38;;;;;;;3.08;1.50;;;13.50;83.30;;;;;;5047715;28;20559;-76
2021/05/21 07:20:05;;;;;;;2.60;1.10;;;13.50;83.60;;;;;;5066065;28;20025;-76
2021/05/21 07:22:31;;;;;;;3.15;1.40;;;13.60;83.70;;;;;;5064414;28;20477;-76
2021/05/21 07:24:56;;;;;;;4.97;1.15;;;13.70;83.10;;;;;;5066468;28;20112;-76
2021/05/21 07:27:22;;;;;;;4.00;1.50;;;13.90;83.00;;;;;;5042591;28;20029;-76
2021/05/21 07:29:48;;;;;;;5.75;1.33;;;13.90;82.60;;;;;;5042964;28;20056;-75
2021/05/21 07:32:13;;;;;;;3.95;1.42;;;14.00;82.20;;;;;;5063026;28;20063;-76
2021/05/21 07:34:39;;;;;;;3.13;1.42;;;14.00;82.20;;;;;;5044780;28;20028;-76
2021/05/21 07:37:06;;;;;;;2.95;1.60;;;14.10;81.90;;;;;;5060672;28;20032;-76
2021/05/21 07:39:32;;;;;;;3.95;1.35;;;14.20;80.80;;;;;;5063277;28;20051;-75
2021/05/21 07:41:58;;;;;;;3.90;1.58;;;14.20;81.20;;;;;;5063944;28;20028;-79
2021/05/21 07:44:25;;;;;;;2.63;1.70;;;14.30;80.90;;;;;;5046825;28;20035;-76
2021/05/21 07:46:51;;;;;;;2.30;1.30;;;14.30;80.80;;;;;;5063855;28;20032;-77
2021/05/21 07:49:22;;;;;;;4.22;1.63;;;14.40;79.70;;;;;;5046925;28;20025;-76
2021/05/21 07:51:49;;;;;;;2.78;1.35;;;14.50;79.80;;;;;;5042339;28;20037;-76
2021/05/21 07:54:16;;;;;;;5.03;1.70;;;14.50;79.60;;;;;;5061211;28;20043;-78
2021/05/21 07:56:42;;;;;;;3.88;1.60;;;14.70;78.80;;;;;;5049226;28;20037;-79
2021/05/21 07:59:09;;;;;;;1.90;1.10;;;14.80;78.70;;;;;;5033953;28;20059;-80
2021/05/21 08:01:35;;;;;;;2.80;1.40;;;14.80;78.00;;;;;;5050827;28;20032;-78
2021/05/21 08:04:01;;;;;;;3.13;1.60;;;14.70;78.50;;;;;;5065099;28;20154;-78
2021/05/21 08:06:27;;;;;;;2.08;1.38;;;14.70;78.50;;;;;;5066307;28;20037;-80
2021/05/21 08:08:52;;;;;;;4.50;2.28;;;14.70;79.10;;;;;;5047428;28;20475;-79
2021/05/21 08:11:18;;;;;;;3.60;1.83;;;14.60;79.60;;;;;;5066461;28;20060;-78
2021/05/21 08:13:44;;;;;;;2.58;1.75;;;14.60;79.80;;;;;;5071697;28;20038;-77
2021/05/21 08:16:10;;;;;;;31.17;4.85;;;14.50;80.30;;;;;;5051668;28;20029;-77
2021/05/21 08:18:37;;;;;;;143.07;9.43;;;14.30;92.60;;;;;;5067993;28;20104;-76
2021/05/21 08:21:03;;;;;;;22.98;3.35;;;13.00;96.00;;;;;;5064659;28;20099;-74
2021/05/21 08:23:29;;;;;;;19.27;3.33;;;11.80;97.10;;;;;;5065685;28;20029;-76
2021/05/21 08:25:55;;;;;;;14.32;3.47;;;10.90;99.00;;;;;;5047424;28;20039;-76
2021/05/21 08:28:22;;;;;;;8.10;3.88;;;10.70;99.90;;;;;;5051968;28;20724;-76
2021/05/21 08:30:49;;;;;;;14.18;5.95;;;10.60;99.90;;;;;;5067238;28;20032;-79
2021/05/21 08:33:16;;;;;;;17.05;5.95;;;10.60;99.90;;;;;;5071033;28;20028;-78
2021/05/21 08:35:43;;;;;;;17.00;5.72;;;10.70;99.90;;;;;;5064984;28;20021;-79
2021/05/21 08:38:09;;;;;;;20.60;6.57;;;10.70;99.90;;;;;;5068846;28;20032;-78
2021/05/21 08:40:38;;;;;;;22.25;7.05;;;10.70;99.90;;;;;;5068296;28;20505;-78
2021/05/21 08:43:12;;;;;;;11.65;7.75;;;10.70;99.90;;;;;;5054850;28;20502;-81
2021/05/21 08:45:38;;;;;;;12.98;7.38;;;10.80;99.90;;;;;;5049385;28;20029;-77
2021/05/21 08:48:05;;;;;;;12.55;7.35;;;10.90;99.90;;;;;;5052317;28;20029;-76
2021/05/21 08:50:31;;;;;;;13.00;7.20;;;11.00;99.90;;;;;;5066968;28;20478;-78
2021/05/21 08:52:57;;;;;;;16.65;8.43;;;11.10;99.90;;;;;;5045990;28;20510;-77
2021/05/21 08:55:24;;;;;;;21.90;8.93;;;11.10;99.90;;;;;;5054338;28;20130;-77
2021/05/21 08:57:50;;;;;;;15.73;6.75;;;11.20;99.90;;;;;;5070264;28;20043;-77
2021/05/21 09:00:16;;;;;;;14.70;7.18;;;11.20;99.90;;;;;;5058638;28;20567;-77
2021/05/21 09:02:43;;;;;;;14.15;6.95;;;11.30;99.90;;;;;;5060654;28;20028;-78
2021/05/21 09:05:11;;;;;;;20.35;8.10;;;11.30;99.90;;;;;;5060786;28;20066;-79
2021/05/21 09:07:39;;;;;;;14.40;8.02;;;11.30;99.90;;;;;;5058197;28;20392;-77
2021/05/21 09:10:12;;;;;;;13.93;7.72;;;11.40;99.90;;;;;;5067746;28;20627;-78
2021/05/21 09:12:45;;;;;;;21.13;8.93;;;11.40;99.90;;;;;;5029858;28;20025;-78
2021/05/21 09:15:17;;;;;;;14.55;6.95;;;11.40;99.90;;;;;;5074836;28;20029;-77
2021/05/21 09:18:01;;;;;;;15.85;6.15;;;11.40;99.90;;;;;;5067972;28;20104;-76
2021/05/21 09:20:31;;;;;;;17.50;5.95;;;11.50;99.90;;;;;;5047830;28;20048;-76
2021/05/21 09:23:03;;;;;;;11.02;4.50;;;11.50;99.90;;;;;;5043763;28;20032;-77
2021/05/21 09:25:42;;;;;;;12.75;5.57;;;11.60;99.90;;;;;;5064692;28;20028;-77
2021/05/21 09:28:37;;;;;;;8.40;4.90;;;11.70;99.90;;;;;;5046815;28;20024;-75
2021/05/21 09:31:11;;;;;;;17.20;6.07;;;11.70;99.90;;;;;;5063964;28;20036;-74
2021/05/21 09:33:39;;;;;;;17.35;5.43;;;11.70;99.90;;;;;;5062620;28;20029;-75
2021/05/21 09:36:05;;;;;;;21.00;6.25;;;11.70;99.90;;;;;;5063632;28;20037;-75
2021/05/21 09:38:44;;;;;;;20.50;5.40;;;11.70;99.90;;;;;;5068879;28;20032;-77
2021/05/21 09:41:10;;;;;;;15.35;5.18;;;11.70;99.90;;;;;;5050648;28;20024;-76
2021/05/21 09:43:36;;;;;;;18.95;5.68;;;11.80;99.90;;;;;;5051270;28;20025;-77
2021/05/21 09:46:12;;;;;;;18.88;4.72;;;11.80;99.90;;;;;;5052243;28;20128;-75
2021/05/21 09:48:38;;;;;;;21.20;4.82;;;12.00;99.90;;;;;;5069611;28;20060;-76
2021/05/21 09:51:05;;;;;;;20.40;5.30;;;12.00;99.90;;;;;;5074963;28;20401;-79
2021/05/21 09:53:33;;;;;;;17.30;4.30;;;12.00;99.90;;;;;;5045246;28;20077;-76
2021/05/21 09:56:15;;;;;;;23.05;5.05;;;12.10;99.90;;;;;;5065052;28;20078;-76
2021/05/21 09:58:42;;;;;;;26.30;5.35;;;12.10;99.90;;;;;;5047627;28;20016;-78
2021/05/21 10:01:14;;;;;;;27.65;5.40;;;12.10;99.90;;;;;;5069220;28;20032;-79
2021/05/21 10:03:43;;;;;;;;;;;12.10;99.90;;;;;;5068800;28;20033;-77
2021/05/21 10:06:10;;;;;;;21.92;4.97;;;12.20;99.90;;;;;;5058897;28;19959;-75
2021/05/21 10:08:40;;;;;;;16.85;4.90;;;12.20;99.90;;;;;;5063484;28;20029;-75
2021/05/21 10:11:09;;;;;;;16.38;4.35;;;12.30;99.90;;;;;;5062105;28;20047;-76
2021/05/21 10:13:36;;;;;;;33.42;5.38;;;12.50;99.90;;;;;;5068153;28;20036;-77
2021/05/21 10:16:04;;;;;;;25.95;4.20;;;12.40;99.90;;;;;;5062458;28;20020;-76
2021/05/21 10:18:30;;;;;;;16.60;3.35;;;12.30;99.90;;;;;;5064617;28;20043;-74
2021/05/21 10:20:57;;;;;;;18.40;3.70;;;12.30;99.90;;;;;;5056799;28;20055;-71
2021/05/21 10:23:26;;;;;;;26.25;4.30;;;12.30;99.90;;;;;;5065464;28;20032;-78
2021/05/21 10:25:56;;;;;;;19.92;3.78;;;12.10;99.90;;;;;;5066563;28;20103;-75
2021/05/21 10:28:28;;;;;;;17.30;3.22;;;11.90;99.90;;;;;;5066839;28;20041;-75
2021/05/21 10:31:02;;;;;;;17.90;3.20;;;12.00;99.90;;;;;;5064657;28;20035;-75
2021/05/21 10:33:32;;;;;;;17.85;4.22;;;12.20;99.90;;;;;;5065770;28;20371;-74
2021/05/21 10:36:22;;;;;;;19.87;4.03;;;12.30;99.90;;;;;;5062528;28;20474;-74
2021/05/21 10:39:07;;;;;;;15.70;3.92;;;12.50;99.90;;;;;;5046705;28;20104;-77
2021/05/21 10:41:34;;;;;;;18.55;2.85;;;12.60;99.90;;;;;;5063709;28;20056;-74
2021/05/21 10:44:01;;;;;;;19.10;3.45;;;12.60;99.90;;;;;;5066784;28;20398;-73
2021/05/21 10:46:28;;;;;;;20.67;3.67;;;12.60;99.90;;;;;;5063888;28;20046;-71
2021/05/21 10:49:02;;;;;;;18.45;3.50;;;12.60;99.90;;;;;;5047213;28;20078;-72
2021/05/21 10:51:54;;;;;;;14.85;3.92;;;12.70;99.90;;;;;;5042348;28;21257;-73
2021/05/21 10:54:29;;;;;;;21.95;3.38;;;12.70;99.90;;;;;;5063880;28;20025;-72
2021/05/21 10:57:13;;;;;;;11.32;2.95;;;12.60;99.90;;;;;;5065415;28;20025;-72
2021/05/21 10:59:51;;;;;;;20.58;3.90;;;12.70;99.90;;;;;;5066274;28;20494;-71
2021/05/21 11:02:27;;;;;;;15.65;3.67;;;12.80;99.90;;;;;;5063280;28;20040;-71
2021/05/21 11:04:54;;;;;;;14.77;3.25;;;12.90;99.90;;;;;;5067537;28;20033;-71
2021/05/21 11:07:39;;;;;;;12.10;3.10;;;12.90;99.90;;;;;;5046939;28;20573;-71
2021/05/21 11:10:07;;;;;;;11.00;2.80;;;13.10;99.90;;;;;;5056463;28;20036;-71
2021/05/21 11:12:44;;;;;;;15.57;3.78;;;13.40;99.90;;;;;;5066943;28;20040;-71
2021/05/21 11:15:32;;;;;;;18.35;3.47;;;13.70;99.90;;;;;;5065159;28;20104;-71
2021/05/21 11:18:20;;;;;;;15.13;3.45;;;13.80;99.90;;;;;;5064654;28;20024;-70
2021/05/21 11:20:55;;;;;;;23.60;2.85;;;13.90;99.50;;;;;;5060072;28;20340;-70
2021/05/21 11:23:50;;;;;;;12.05;2.45;;;13.80;98.80;;;;;;5058053;28;20039;-71
2021/05/21 11:26:25;;;;;;;7.45;2.28;;;13.60;98.50;;;;;;5053352;28;20046;-71
2021/05/21 11:28:58;;;;;;;10.75;2.88;;;13.50;99.90;;;;;;5067196;28;20036;-70
2021/05/21 11:31:24;;;;;;;11.13;2.88;;;13.40;99.40;;;;;;5062459;28;20041;-79
2021/05/21 11:33:51;;;;;;;11.02;2.25;;;13.30;97.50;;;;;;5063575;28;20031;-76
2021/05/21 11:36:19;;;;;;;9.35;2.50;;;13.10;99.80;;;;;;5026007;28;20047;-75
2021/05/21 11:38:46;;;;;;;9.48;2.30;;;13.10;99.60;;;;;;5062605;28;20025;-75
2021/05/21 11:41:12;;;;;;;9.30;2.55;;;13.10;98.30;;;;;;5064889;28;20023;-74
2021/05/21 11:43:43;;;;;;;8.60;2.58;;;13.10;95.80;;;;;;5066161;28;20112;-75
2021/05/21 11:46:20;;;;;;;;;;;13.20;97.50;;;;;;5067157;28;20035;-76
2021/05/21 11:48:48;;;;;;;6.43;2.50;;;13.30;96.10;;;;;;5066452;28;19999;-75
2021/05/21 11:51:25;;;;;;;8.88;2.35;;;13.30;96.40;;;;;;5058457;28;20025;-75
2021/05/21 11:54:02;;;;;;;9.57;2.08;;;13.30;95.50;;;;;;5065482;28;20628;-75
2021/05/21 11:56:41;;;;;;;10.32;2.80;;;13.30;97.70;;;;;;5067310;28;20036;-76
2021/05/21 11:59:18;;;;;;;17.05;2.72;;;13.30;96.60;;;;;;5062154;28;20032;-75
2021/05/21 12:01:52;;;;;;;12.35;2.90;;;13.30;93.40;;;;;;5065114;28;20138;-75
2021/05/21 12:04:21;;;;;;;12.07;2.55;;;13.30;95.80;;;;;;5061535;28;20068;-75
2021/05/21 12:06:51;;;;;;;7.32;2.20;;;13.20;94.50;;;;;;5064606;28;20035;-74
2021/05/21 12:09:19;;;;;;;7.27;1.97;;;13.20;93.50;;;;;;5038862;28;20267;-76
2021/05/21 12:11:45;;;;;;;10.05;2.22;;;13.30;93.50;;;;;;5063982;28;20123;-75
2021/05/21 12:14:14;;;;;;;10.77;2.47;;;13.30;91.60;;;;;;5062857;28;20106;-75
2021/05/21 12:16:42;;;;;;;7.40;2.17;;;13.20;91.30;;;;;;5043490;28;20025;-75
2021/05/21 12:19:10;;;;;;;8.98;2.47;;;13.30;91.50;;;;;;5063351;28;20403;-73
2021/05/21 12:21:39;;;;;;;7.57;2.38;;;13.40;93.40;;;;;;5063039;28;20040;-75
2021/05/21 12:24:07;;;;;;;7.20;2.03;;;13.40;92.60;;;;;;5044383;28;20029;-75
2021/05/21 12:26:34;;;;;;;7.25;2.50;;;13.60;89.50;;;;;;5063840;28;20105;-74
2021/05/21 12:29:02;;;;;;;8.00;2.72;;;14.10;91.10;;;;;;5063883;28;20020;-73
2021/05/21 12:31:31;;;;;;;9.40;3.03;;;14.40;93.00;;;;;;5063866;28;20108;-73
2021/05/21 12:33:59;;;;;;;7.22;2.30;;;14.60;92.80;;;;;;5060799;28;20060;-73
2021/05/21 12:36:29;;;;;;;8.25;2.40;;;14.60;90.60;;;;;;5063384;28;20021;-75
2021/05/21 12:38:58;;;;;;;5.82;2.13;;;14.70;89.10;;;;;;5069274;28;20402;-74
2021/05/21 12:41:31;;;;;;;6.15;2.30;;;14.70;91.00;;;;;;5054925;28;20024;-74
2021/05/21 12:44:13;;;;;;;7.20;2.78;;;14.90;90.00;;;;;;5068034;28;20103;-78
2021/05/21 12:46:39;;;;;;;7.95;2.42;;;15.50;92.00;;;;;;5062159;28;20024;-73
2021/05/21 12:49:09;;;;;;;7.05;1.80;;;16.50;92.00;;;;;;5063213;28;20051;-73